AirNav   Everest Fuels
 
 671 users online  

04FL Cross Creek Farms Airport
Ormond, Florida, USA

GOING TO ORMOND?


FAA INFORMATION EFFECTIVE 18 JUNE 2020

Location

FAA Identifier: 04FL
Lat/Long: 29-14-21.9290N 081-13-19.2180W
29-14.365483N 081-13.320300W
29.2394247,-81.2220050
(estimated)
Elevation: 30 ft. / 9 m (estimated)
Variation: 03W (1985)
From city: 10 miles W of ORMOND, FL
Time zone: UTC -4 (UTC -5 during Standard Time)
Zip code: 32174

Airport Operations

Airport use: Private use. Permission required prior to landing
Activation date: 07/1990
Control tower: no
ARTCC: JACKSONVILLE CENTER
FSS: SAINT PETERSBURG FLIGHT SERVICE STATION
Attendance: UNATNDD
Segmented circle: no

Airport Communications

WX AWOS-3 at OMN (7 nm NE): 118.475 (386-615-7084)
WX ASOS at DAB (9 nm SE): PHONE 386-253-7469
WX AWOS-3 at DED (11 nm S): 119.575 (386-740-5811)
WX AWOS-3 at FIN (14 nm N): 128.325 (386-437-7334)
WX AWOS-3 at EVB (18 nm SE): 124.625 (386-409-4705)

Nearby radio navigation aids

VOR radial/distance  VOR name  Freq  Var
OMNr236/6.9ORMOND BEACH VORTAC112.6000E

Airport Services

Runway Information

Runway 9/27

Dimensions: 3000 x 100 ft. / 914 x 30 m
Surface: turf
RUNWAY 9  RUNWAY 27
Traffic pattern: leftleft
Obstructions: 75 ft. trees, 100 ft. from runway75 ft. trees, 100 ft. from runway

Airport Ownership and Management from official FAA records

Ownership: Privately-owned
Owner: DAVID HIGGS
274 WOODHAVEN CIRCLE NORTH
ORMOND BEACH, FL 32174
Phone 386-566-7041
Manager: DAVID HIGGS
274 WOODHAVEN CIRCLE NORTH
ORMOND BEACH, FL 32174
Phone 386-566-7041

Airport Operational Statistics

Aircraft based on the field: 2
Single engine airplanes: 2
    

Additional Remarks

FOR CD CTC DAYTONA APCH AT 386-226-3939.

Instrument Procedures

There are no published instrument procedures at 04FL.

Some nearby airports with instrument procedures:

KOMN - Ormond Beach Municipal Airport (7 nm NE)
KDAB - Daytona Beach International Airport (9 nm SE)
KDED - DeLand Municipal Airport-Sidney H Taylor Field (11 nm S)
KFIN - Flagler Executive Airport (14 nm N)
KEVB - New Smyrna Beach Municipal Airport (18 nm SE)
 
Loc | Ops | Rwys | IFR | FBO | Links
Com | Nav | Svcs | Stats | Notes
Area around 04FL (Cross Creek Farms Airport)
 
Road maps at: MapQuest Bing Google
 
Aerial photo
WARNING: Photo may not be current or correct
Aerial photo of 04FL (Cross Creek Farms Airport)
Do you have a better or more recent aerial photo of Cross Creek Farms Airport that you would like to share? If so, please send us your photo.

 
Sectional chart

 
Airport distance calculator
Flying to Cross Creek Farms Airport? Find the distance to fly.

From to 04FL

Sunrise and sunset
Times for 05-Jul-2020
 Local
(UTC-4)
 Zulu
(UTC)
Morning civil twilight06:0510:05
Sunrise06:3210:32
Sunset20:2700:27
Evening civil twilight20:5400:54

Current date and time
Zulu (UTC)  05-Jul-2020 12:57:20
Local (UTC-4)  05-Jul-2020 08:57:20
 
METAR
KOMN 
7nm NE 
051250Z 00000KT 7SM BKN090 26/18 A2998
KDAB 
9nm E 
051253Z 21005KT 10SM FEW045 SCT120 BKN160 BKN250 25/24 A2998 RMK AO2 SLP150 T02500239
KDED 
11nm S 
051235Z AUTO 21007KT 10SM BKN110 26/23 A2998 RMK AO2 T02580229
KFIN 
14nm N 
051250Z 21004KT 10SM CLR 24/23 A2998
KEVB 
18nm SE 
051247Z 22004KT 1 0SM CLR 27/23 A2999
TAF
KDAB 
9nm E 
051139Z 0512/0612 19005KT P6SM BKN130 FM051400 22006KT P6SM SCT035 SCT120 BKN200 FM051800 11007KT P6SM VCTS SCT035CB SCT060 TEMPO 0518/0521 3SM TSRA BKN035CB BKN050 OVC080 FM052300 24004KT P6SM VCSH SCT035 BKN100 FM060300 20004KT P6SM SCT120 BKN250
NOTAMs
Click for the latest NOTAMs
NOTAMs are issued by the DoD/FAA and will open in a separate window not controlled by AirNav.

 

 
 

Would you like to see your business listed on this page?

 If your business provides an interesting product or service to pilots, flight crews, aircraft, or users of the Cross Creek Farms Airport, you should consider listing it here.  To start the listing process, click on the button below
 
Add a business
 

Other Pages about Cross Creek Farms Airport

Update a link
 
Copyright © AirNav, LLC. All rights reserved. Privacy Policy  Contact